createdAt,value
2018-12-06T00:00:52.594Z,16.10
2018-12-06T00:03:28.454Z,17.20
2018-12-06T00:06:04.468Z,16.00
2018-12-06T00:08:40.265Z,15.93
2018-12-06T00:11:16.089Z,16.03
2018-12-06T00:13:52.602Z,14.57
2018-12-06T00:16:27.828Z,14.90
2018-12-06T00:19:07.880Z,15.63
2018-12-06T00:21:43.674Z,15.50
2018-12-06T00:24:19.712Z,14.60
2018-12-06T00:26:56.757Z,15.07
2018-12-06T00:29:32.362Z,14.77
2018-12-06T00:32:08.274Z,14.67
2018-12-06T00:34:43.221Z,14.67
2018-12-06T00:37:19.093Z,15.00
2018-12-06T00:39:54.917Z,14.63
2018-12-06T00:42:30.940Z,15.33
2018-12-06T00:45:06.919Z,15.77
2018-12-06T00:47:43.966Z,15.13
2018-12-06T00:50:19.441Z,15.27
2018-12-06T00:52:55.192Z,15.63
2018-12-06T00:55:31.267Z,15.17
2018-12-06T00:58:07.200Z,16.03
2018-12-06T01:00:43.167Z,14.97
2018-12-06T01:03:18.808Z,14.70
2018-12-06T01:05:54.732Z,14.07
2018-12-06T01:08:30.537Z,16.03
2018-12-06T01:11:06.481Z,16.20
2018-12-06T01:13:42.257Z,16.57
2018-12-06T01:16:17.381Z,16.77
2018-12-06T01:22:31.529Z,15.90
2018-12-06T01:25:07.542Z,17.30
2018-12-06T01:27:43.267Z,19.30
2018-12-06T01:30:19.312Z,19.33
2018-12-06T01:32:55.687Z,19.50
2018-12-06T01:35:32.102Z,18.80
2018-12-06T01:38:07.991Z,19.67
2018-12-06T01:40:43.002Z,20.97
2018-12-06T01:43:18.896Z,23.70
2018-12-06T01:45:53.924Z,24.93
2018-12-06T01:48:30.004Z,25.93
2018-12-06T01:51:05.547Z,25.47
2018-12-06T01:53:41.253Z,24.53
2018-12-06T01:56:18.179Z,24.43
2018-12-06T01:58:54.141Z,21.63
2018-12-06T02:01:30.171Z,20.83
2018-12-06T02:04:06.213Z,21.37
2018-12-06T02:06:42.004Z,21.77
2018-12-06T02:09:17.955Z,19.83
2018-12-06T02:11:53.846Z,19.23
2018-12-06T02:14:29.669Z,18.80
2018-12-06T02:17:05.500Z,19.30
2018-12-06T02:19:41.181Z,19.07
2018-12-06T02:22:17.141Z,18.37
2018-12-06T02:24:53.016Z,19.43
2018-12-06T02:27:30.176Z,17.83
2018-12-06T02:30:05.938Z,16.87
2018-12-06T02:32:41.898Z,18.07
2018-12-06T02:35:17.471Z,16.80
2018-12-06T02:37:53.272Z,17.43
2018-12-06T02:40:29.663Z,16.53
2018-12-06T02:43:05.096Z,17.53
2018-12-06T02:45:41.672Z,18.47
2018-12-06T02:48:16.737Z,18.27
2018-12-06T02:50:52.696Z,18.87
2018-12-06T02:53:28.670Z,17.33
2018-12-06T02:56:04.796Z,16.87
2018-12-06T02:58:40.376Z,18.13
2018-12-06T03:01:16.558Z,17.20
2018-12-06T03:03:52.310Z,17.63
2018-12-06T03:06:28.097Z,17.30
2018-12-06T03:09:05.419Z,18.10
2018-12-06T03:11:42.853Z,18.97
2018-12-06T03:14:18.650Z,18.73
2018-12-06T03:16:56.196Z,19.40
2018-12-06T03:19:31.480Z,19.37
2018-12-06T03:22:08.363Z,18.83
2018-12-06T03:24:44.377Z,19.10
2018-12-06T03:27:20.366Z,17.67
2018-12-06T03:29:56.227Z,19.27
2018-12-06T03:32:32.141Z,19.00
2018-12-06T03:35:07.305Z,18.37
2018-12-06T03:37:42.977Z,19.23
2018-12-06T03:40:18.034Z,17.97
2018-12-06T03:42:53.735Z,18.37
2018-12-06T03:45:29.661Z,18.80
2018-12-06T03:48:05.489Z,17.33
2018-12-06T03:50:40.677Z,19.40
2018-12-06T03:53:16.598Z,17.40
2018-12-06T03:55:52.510Z,18.70
2018-12-06T03:58:28.516Z,19.47
2018-12-06T04:01:04.352Z,17.67
2018-12-06T04:03:40.029Z,19.13
2018-12-06T04:06:15.960Z,21.67
2018-12-06T04:08:51.918Z,19.47
2018-12-06T04:11:27.593Z,19.13
2018-12-06T04:14:03.706Z,21.07
2018-12-06T04:16:39.354Z,21.13
2018-12-06T04:19:14.321Z,21.63
2018-12-06T04:21:49.284Z,21.83
2018-12-06T04:24:24.260Z,21.87
2018-12-06T04:27:00.112Z,22.30
2018-12-06T04:29:37.405Z,22.47
2018-12-06T04:32:13.083Z,23.30
2018-12-06T04:34:48.965Z,22.77
2018-12-06T04:37:24.802Z,24.23
2018-12-06T04:40:00.922Z,25.13
2018-12-06T04:42:36.686Z,24.53
2018-12-06T04:45:11.700Z,25.50
2018-12-06T04:47:47.555Z,26.50
2018-12-06T04:50:23.511Z,26.50
2018-12-06T04:52:59.333Z,26.87
2018-12-06T04:55:35.610Z,26.53
2018-12-06T04:58:11.064Z,26.00
2018-12-06T05:00:46.916Z,26.57
2018-12-06T05:03:22.705Z,27.53
2018-12-06T05:05:59.673Z,27.90
2018-12-06T05:08:35.598Z,26.20
2018-12-06T05:11:10.575Z,27.87
2018-12-06T05:13:46.512Z,27.90
2018-12-06T05:16:21.572Z,28.47
2018-12-06T05:18:57.496Z,27.97
2018-12-06T05:21:33.405Z,27.73
2018-12-06T05:24:09.339Z,27.53
2018-12-06T05:26:45.257Z,27.30
2018-12-06T05:29:20.871Z,27.70
2018-12-06T05:31:56.878Z,27.00
2018-12-06T05:34:31.944Z,28.13
2018-12-06T05:37:07.980Z,28.53
2018-12-06T05:39:43.528Z,29.03
2018-12-06T05:42:19.687Z,27.30
2018-12-06T05:44:55.470Z,28.20
2018-12-06T05:47:31.676Z,29.37
2018-12-06T05:50:07.572Z,29.30
2018-12-06T05:52:42.825Z,29.30
2018-12-06T05:55:18.588Z,30.97
2018-12-06T05:57:54.708Z,29.63
2018-12-06T06:00:30.713Z,30.83
2018-12-06T06:03:07.598Z,30.63
2018-12-06T06:05:43.358Z,33.37
2018-12-06T06:08:20.583Z,31.90
2018-12-06T06:10:56.095Z,33.57
2018-12-06T06:13:32.675Z,32.47
2018-12-06T06:16:07.842Z,32.53
2018-12-06T06:18:43.811Z,31.67
2018-12-06T06:21:19.730Z,33.40
2018-12-06T06:23:55.588Z,32.13
2018-12-06T06:26:31.621Z,34.43
2018-12-06T06:29:07.378Z,35.03
2018-12-06T06:31:43.443Z,34.63
2018-12-06T06:34:19.186Z,34.33
2018-12-06T06:36:54.237Z,34.00
2018-12-06T06:39:29.243Z,36.10
2018-12-06T06:42:05.097Z,37.50
2018-12-06T06:44:42.461Z,37.93
2018-12-06T06:47:18.162Z,36.80
2018-12-06T06:49:53.903Z,38.13
2018-12-06T06:52:29.848Z,37.70
2018-12-06T06:55:05.922Z,38.47
2018-12-06T06:57:41.663Z,39.50
2018-12-06T07:00:17.597Z,38.73
2018-12-06T07:02:53.912Z,39.50
2018-12-06T07:05:29.390Z,39.40
2018-12-06T07:08:05.296Z,39.17
2018-12-06T07:10:42.225Z,38.47
2018-12-06T07:13:17.959Z,38.20
2018-12-06T07:15:53.866Z,36.30
2018-12-06T07:18:29.682Z,38.87
2018-12-06T07:21:06.528Z,36.97
2018-12-06T07:23:41.665Z,36.90
2018-12-06T07:26:17.491Z,36.37
2018-12-06T07:28:53.507Z,39.77
2018-12-06T07:31:29.241Z,36.50
2018-12-06T07:34:05.840Z,37.60
2018-12-06T07:36:41.039Z,36.23
2018-12-06T07:39:16.980Z,36.03
2018-12-06T07:41:52.710Z,36.13
2018-12-06T07:44:28.830Z,37.10
2018-12-06T07:47:06.189Z,36.23
2018-12-06T07:49:42.675Z,37.73
2018-12-06T07:52:18.458Z,37.60
2018-12-06T07:54:54.363Z,38.90
2018-12-06T07:57:30.283Z,38.50
2018-12-06T08:00:07.385Z,39.57
2018-12-06T08:02:43.249Z,41.63
2018-12-06T08:05:19.206Z,42.47
2018-12-06T08:07:54.840Z,41.10
2018-12-06T08:10:30.856Z,42.10
2018-12-06T08:13:06.733Z,41.80
2018-12-06T08:15:42.673Z,42.43
2018-12-06T08:18:18.420Z,41.13
2018-12-06T08:20:56.343Z,41.43
2018-12-06T08:23:32.317Z,42.40
2018-12-06T08:26:08.065Z,42.70
2018-12-06T08:28:44.059Z,43.50
2018-12-06T08:31:19.886Z,41.00
2018-12-06T08:33:56.887Z,41.83
2018-12-06T08:36:32.769Z,42.53
2018-12-06T08:39:09.673Z,40.10
2018-12-06T08:41:45.766Z,39.80
2018-12-06T08:44:21.789Z,42.30
2018-12-06T08:46:57.954Z,42.03
2018-12-06T08:49:34.662Z,40.17
2018-12-06T08:52:10.523Z,40.00
2018-12-06T08:54:46.377Z,39.80
2018-12-06T08:57:23.339Z,39.73
2018-12-06T08:59:59.185Z,40.57
2018-12-06T09:02:35.125Z,39.97
2018-12-06T09:05:11.048Z,38.73
2018-12-06T09:07:48.044Z,39.60
2018-12-06T09:10:23.883Z,37.90
2018-12-06T09:12:59.729Z,37.53
2018-12-06T09:15:35.648Z,37.80
2018-12-06T09:18:11.540Z,37.10
2018-12-06T09:20:47.487Z,36.43
2018-12-06T09:23:23.270Z,35.23
2018-12-06T09:25:59.087Z,36.70
2018-12-06T09:28:34.982Z,35.33
2018-12-06T09:31:11.006Z,35.53
2018-12-06T09:34:06.406Z,33.97
2018-12-06T09:36:41.975Z,34.70
2018-12-06T09:39:18.005Z,34.57
2018-12-06T09:41:53.655Z,33.57
2018-12-06T09:44:30.320Z,33.40
2018-12-06T09:47:05.760Z,32.63
2018-12-06T09:49:41.773Z,31.77
2018-12-06T09:52:17.609Z,34.43
2018-12-06T09:54:53.506Z,33.73
2018-12-06T09:57:29.420Z,32.93
2018-12-06T10:00:06.191Z,31.33
2018-12-06T10:02:41.879Z,33.20
2018-12-06T10:05:18.622Z,34.00
2018-12-06T10:07:54.625Z,33.97
2018-12-06T10:10:30.547Z,34.70
2018-12-06T10:13:06.309Z,35.23
2018-12-06T10:15:43.239Z,35.70
2018-12-06T10:18:19.295Z,36.97
2018-12-06T10:20:55.085Z,35.47
2018-12-06T10:23:30.977Z,35.13
2018-12-06T10:26:06.856Z,34.10
2018-12-06T10:28:41.907Z,35.50
2018-12-06T10:31:17.692Z,35.70
2018-12-06T10:33:53.922Z,35.53
2018-12-06T10:36:29.303Z,36.33
2018-12-06T10:40:37.083Z,35.07
2018-12-06T10:43:12.323Z,33.10
2018-12-06T10:45:48.043Z,33.60
2018-12-06T10:48:23.974Z,33.67
2018-12-06T10:51:11.428Z,34.20
2018-12-06T10:53:46.990Z,33.47
2018-12-06T10:56:22.714Z,34.67
2018-12-06T10:58:58.448Z,31.90
2018-12-06T11:01:40.005Z,33.87
2018-12-06T11:04:15.191Z,30.53
2018-12-06T11:06:51.669Z,29.50
2018-12-06T11:09:27.113Z,29.30
2018-12-06T11:12:03.168Z,29.97
2018-12-06T11:14:38.914Z,27.80
2018-12-06T11:17:14.942Z,29.53
2018-12-06T11:19:50.862Z,27.27
2018-12-06T11:22:26.792Z,25.43
2018-12-06T11:25:02.644Z,27.17
2018-12-06T11:27:38.557Z,26.63
2018-12-06T11:30:14.549Z,25.03
2018-12-06T11:32:50.437Z,24.97
2018-12-06T11:35:26.253Z,25.67
2018-12-06T11:38:01.207Z,24.80
2018-12-06T11:40:36.317Z,26.30
2018-12-06T11:43:12.113Z,25.23
2018-12-06T11:45:51.918Z,23.70
2018-12-06T11:48:27.843Z,24.30
2018-12-06T11:51:04.445Z,24.07
2018-12-06T11:53:39.623Z,22.23
2018-12-06T11:56:15.880Z,22.63
2018-12-06T11:58:51.524Z,22.27
2018-12-06T12:01:28.634Z,21.43
2018-12-06T12:04:04.490Z,20.30
2018-12-06T12:06:40.293Z,18.73
2018-12-06T12:09:16.305Z,18.37
2018-12-06T12:11:52.131Z,19.77
2018-12-06T12:14:30.143Z,19.20
2018-12-06T12:17:05.681Z,19.40
2018-12-06T12:19:41.293Z,19.40
2018-12-06T12:22:17.700Z,18.90
2018-12-06T12:24:53.146Z,19.17
2018-12-06T12:27:29.271Z,18.23
2018-12-06T12:30:05.582Z,17.03
2018-12-06T12:32:41.659Z,16.93
2018-12-06T12:35:18.835Z,18.07
2018-12-06T12:37:54.841Z,18.43
2018-12-06T12:40:32.216Z,17.03
2018-12-06T12:43:08.180Z,17.47
2018-12-06T12:45:44.129Z,15.27
2018-12-06T12:48:20.100Z,16.73
2018-12-06T12:50:55.952Z,15.03
2018-12-06T12:53:31.748Z,14.53
2018-12-06T12:56:07.510Z,15.00
2018-12-06T12:58:43.147Z,14.43
2018-12-06T13:01:19.205Z,14.43
2018-12-06T13:03:54.876Z,15.17
2018-12-06T13:06:32.230Z,15.30
2018-12-06T13:09:08.354Z,14.43
2018-12-06T13:11:44.036Z,15.90
2018-12-06T13:14:19.707Z,13.67
2018-12-06T13:17:06.050Z,14.53
2018-12-06T13:19:41.504Z,14.13
2018-12-06T13:22:17.508Z,14.90
2018-12-06T13:24:53.676Z,14.37
2018-12-06T13:27:29.357Z,15.27
2018-12-06T13:30:05.911Z,13.23
2018-12-06T13:32:41.180Z,14.50
2018-12-06T13:35:16.946Z,14.97
2018-12-06T13:37:53.124Z,15.93
2018-12-06T13:40:28.819Z,15.60
2018-12-06T13:43:05.180Z,16.00
2018-12-06T13:45:40.580Z,15.20
2018-12-06T13:48:16.414Z,14.97
2018-12-06T13:50:52.415Z,14.83
2018-12-06T13:53:28.225Z,14.97
2018-12-06T13:56:04.273Z,14.17
2018-12-06T13:58:39.948Z,13.77
2018-12-06T14:01:15.309Z,14.63
2018-12-06T14:03:50.644Z,13.80
2018-12-06T14:06:26.423Z,14.67
2018-12-06T14:09:02.251Z,13.93
2018-12-06T14:11:39.025Z,13.50
2018-12-06T14:14:14.080Z,14.80
2018-12-06T14:16:49.937Z,14.17
2018-12-06T14:19:26.591Z,14.80
2018-12-06T14:22:02.505Z,13.93
2018-12-06T14:24:38.362Z,14.37
2018-12-06T14:27:14.241Z,15.30
2018-12-06T14:29:50.263Z,15.27
2018-12-06T14:32:26.006Z,16.17
2018-12-06T14:35:01.110Z,16.80
2018-12-06T14:37:36.850Z,15.63
2018-12-06T14:40:12.791Z,16.23
2018-12-06T14:42:48.461Z,16.83
2018-12-06T14:45:24.485Z,16.67
2018-12-06T14:48:00.186Z,16.20
2018-12-06T14:50:36.002Z,16.63
2018-12-06T14:53:11.902Z,15.17
2018-12-06T14:55:48.753Z,15.27
2018-12-06T14:58:24.670Z,15.77
2018-12-06T15:00:59.741Z,15.50
2018-12-06T15:03:35.610Z,15.17
2018-12-06T15:06:12.601Z,15.93
2018-12-06T15:08:48.491Z,16.40
2018-12-06T15:11:24.427Z,16.03
2018-12-06T15:14:00.219Z,16.30
2018-12-06T15:16:36.101Z,16.33
2018-12-06T15:19:42.550Z,17.13
2018-12-06T15:22:17.988Z,16.43
2018-12-06T15:24:54.634Z,16.43
2018-12-06T15:27:30.085Z,16.17
2018-12-06T15:30:07.816Z,14.97
2018-12-06T15:32:43.558Z,15.10
2018-12-06T15:35:19.709Z,14.77
2018-12-06T15:42:38.995Z,15.63
2018-12-06T15:45:15.038Z,13.97
2018-12-06T15:47:50.767Z,17.23
2018-12-06T15:50:26.494Z,15.97
2018-12-06T15:53:02.231Z,15.63
2018-12-06T15:55:38.280Z,16.20
2018-12-06T15:58:14.119Z,16.20
2018-12-06T16:00:50.168Z,15.80
2018-12-06T16:03:26.065Z,16.30
2018-12-06T16:06:16.844Z,16.57
2018-12-06T16:08:51.904Z,15.60
2018-12-06T16:11:27.792Z,15.90
2018-12-06T16:14:03.635Z,15.67
2018-12-06T16:16:39.522Z,15.47
2018-12-06T16:19:15.291Z,15.50
2018-12-06T16:21:51.434Z,14.30
2018-12-06T16:24:26.988Z,13.73
2018-12-06T16:27:02.904Z,15.33
2018-12-06T16:29:38.898Z,14.43
2018-12-06T16:32:14.643Z,14.70
2018-12-06T16:34:50.505Z,14.73
2018-12-06T16:37:26.352Z,15.70
2018-12-06T16:40:03.833Z,15.47
2018-12-06T16:42:39.140Z,15.27
2018-12-06T16:45:15.047Z,14.67
2018-12-06T16:47:50.779Z,15.50
2018-12-06T16:50:26.733Z,14.93
2018-12-06T16:53:01.722Z,16.23
2018-12-06T16:55:37.603Z,15.97
2018-12-06T16:58:13.456Z,15.37
2018-12-06T17:00:49.472Z,16.47
2018-12-06T17:03:25.293Z,16.50
2018-12-06T17:06:01.121Z,15.30
2018-12-06T17:08:36.313Z,15.10
2018-12-06T17:11:12.036Z,16.03
2018-12-06T17:13:47.925Z,15.90
2018-12-06T17:16:23.623Z,16.17
2018-12-06T17:19:02.667Z,15.10
2018-12-06T17:21:38.432Z,15.73
2018-12-06T17:24:21.744Z,15.73
2018-12-06T17:26:56.978Z,15.80
2018-12-06T17:29:32.943Z,14.87
2018-12-06T17:32:08.777Z,15.80
2018-12-06T17:34:44.740Z,15.00
2018-12-06T17:37:20.657Z,14.40
2018-12-06T17:39:56.640Z,14.17
2018-12-06T17:42:32.366Z,14.33
2018-12-06T17:45:08.684Z,13.47
2018-12-06T17:47:44.208Z,13.77
2018-12-06T17:50:19.245Z,14.30
2018-12-06T17:52:55.016Z,13.43
2018-12-06T17:55:31.148Z,13.80
2018-12-06T17:58:06.932Z,13.63
2018-12-06T18:00:42.873Z,13.43
2018-12-06T18:03:19.024Z,13.87
2018-12-06T18:05:54.353Z,14.23
2018-12-06T18:08:30.111Z,14.50
2018-12-06T18:11:06.112Z,14.07
2018-12-06T18:13:42.095Z,14.40
2018-12-06T18:16:19.691Z,14.87
2018-12-06T18:18:56.164Z,13.93
2018-12-06T18:21:32.249Z,14.50
2018-12-06T18:24:07.696Z,13.57
2018-12-06T18:26:43.536Z,14.27
2018-12-06T18:29:19.391Z,14.20
2018-12-06T18:31:55.962Z,13.80
2018-12-06T18:34:31.201Z,13.97
2018-12-06T18:37:07.043Z,14.03
2018-12-06T18:39:42.090Z,13.17
2018-12-06T18:42:17.874Z,14.70
2018-12-06T18:44:53.713Z,14.10
2018-12-06T18:47:29.471Z,13.80
2018-12-06T18:50:05.835Z,14.50
2018-12-06T18:52:41.356Z,13.97
2018-12-06T18:55:17.210Z,13.47
2018-12-06T18:57:53.162Z,13.90
2018-12-06T19:00:29.980Z,13.53
2018-12-06T19:03:05.993Z,13.50
2018-12-06T19:05:41.984Z,13.87
2018-12-06T19:08:17.717Z,12.50
2018-12-06T19:10:53.563Z,13.10
2018-12-06T19:13:30.011Z,12.90
2018-12-06T19:16:05.196Z,12.93
2018-12-06T19:18:41.347Z,13.37
2018-12-06T19:21:18.048Z,12.37
2018-12-06T19:23:53.812Z,12.83
2018-12-06T19:26:29.636Z,12.43
2018-12-06T19:29:04.801Z,13.93
2018-12-06T19:31:40.785Z,12.93
2018-12-06T19:34:16.595Z,13.77
2018-12-06T19:36:52.369Z,13.20
2018-12-06T19:39:27.425Z,13.37
2018-12-06T19:42:03.236Z,12.43
2018-12-06T19:44:38.957Z,12.50
2018-12-06T19:47:14.836Z,12.97
2018-12-06T19:49:50.842Z,12.60
2018-12-06T19:52:26.694Z,13.03
2018-12-06T19:55:02.531Z,13.80
2018-12-06T19:57:37.452Z,13.60
2018-12-06T20:00:15.543Z,12.83
2018-12-06T20:02:51.365Z,12.87
2018-12-06T20:05:27.134Z,12.67
2018-12-06T20:08:02.961Z,13.27
2018-12-06T20:10:38.886Z,13.27
2018-12-06T20:13:14.719Z,12.70
2018-12-06T20:15:50.768Z,13.07
2018-12-06T20:18:26.363Z,12.27
2018-12-06T20:21:02.288Z,12.37
2018-12-06T20:23:38.021Z,12.87
2018-12-06T20:26:12.975Z,12.93
2018-12-06T20:28:48.778Z,12.63
2018-12-06T20:31:24.769Z,13.30
2018-12-06T20:34:00.753Z,13.60
2018-12-06T20:36:36.632Z,14.40
2018-12-06T20:39:13.473Z,13.77
2018-12-06T20:41:49.488Z,13.70
2018-12-06T20:44:25.346Z,15.53
2018-12-06T20:47:01.761Z,15.70
2018-12-06T20:49:38.162Z,15.70
2018-12-06T20:52:14.710Z,16.43
2018-12-06T20:54:49.980Z,15.67
2018-12-06T20:57:25.809Z,15.50
2018-12-06T21:00:01.689Z,14.90
2018-12-06T21:02:37.463Z,14.77
2018-12-06T21:05:13.223Z,14.57
2018-12-06T21:07:49.159Z,13.87
2018-12-06T21:10:25.014Z,13.90
2018-12-06T21:13:00.865Z,14.37
2018-12-06T21:15:36.641Z,13.53
2018-12-06T21:18:13.512Z,14.27
2018-12-06T21:20:49.569Z,13.73
2018-12-06T21:23:25.404Z,13.97
2018-12-06T21:26:01.357Z,15.33
2018-12-06T21:28:37.142Z,14.70
2018-12-06T21:31:13.120Z,13.77
2018-12-06T21:33:50.806Z,13.73
2018-12-06T21:36:25.842Z,13.60
2018-12-06T21:52:03.408Z,11.90
2018-12-06T21:54:38.353Z,8.97
2018-12-06T21:57:14.151Z,9.77
2018-12-06T21:59:50.096Z,10.10
2018-12-06T22:02:26.891Z,9.80
2018-12-06T22:05:02.654Z,10.77
2018-12-06T22:07:39.601Z,10.40
2018-12-06T22:10:15.380Z,11.73
2018-12-06T22:12:51.336Z,11.43
2018-12-06T22:15:30.982Z,11.60
2018-12-06T22:18:06.963Z,11.33
2018-12-06T22:20:42.811Z,12.07
2018-12-06T22:23:18.727Z,11.87
2018-12-06T22:25:54.491Z,11.47
2018-12-06T22:28:34.071Z,11.63
2018-12-06T22:31:08.307Z,10.43
2018-12-06T22:33:44.176Z,10.93
2018-12-06T22:45:03.904Z,11.17
2018-12-06T22:47:38.849Z,8.97
2018-12-06T22:50:14.997Z,8.67
2018-12-06T22:52:50.736Z,8.33
2018-12-06T22:55:26.633Z,8.00
2018-12-06T22:58:02.421Z,7.80
2018-12-06T23:00:39.027Z,8.33
2018-12-06T23:03:17.327Z,7.77
2018-12-06T23:05:53.468Z,6.60
2018-12-06T23:08:29.298Z,7.10
2018-12-06T23:11:05.390Z,7.63
2018-12-06T23:13:41.236Z,6.90
2018-12-06T23:16:17.016Z,7.63
2018-12-06T23:18:52.872Z,7.10
2018-12-06T23:21:28.543Z,6.80
2018-12-06T23:24:04.541Z,6.73
2018-12-06T23:26:40.235Z,7.47
2018-12-06T23:29:22.618Z,6.60
2018-12-06T23:31:57.880Z,7.27
2018-12-06T23:37:39.681Z,7.57
2018-12-06T23:40:16.282Z,8.37
2018-12-06T23:42:51.814Z,7.40
2018-12-06T23:48:36.171Z,7.43
2018-12-06T23:51:26.810Z,8.10
2018-12-06T23:54:01.960Z,7.27
2018-12-06T23:56:48.220Z,7.27
2018-12-06T23:59:23.701Z,7.50
